createdAt,value
2023-05-16T00:01:30.395Z,9.60
2023-05-16T00:03:57.817Z,10.18
2023-05-16T00:06:25.473Z,10.85
2023-05-16T00:08:52.785Z,11.10
2023-05-16T00:11:20.065Z,13.32
2023-05-16T00:16:33.068Z,8.82
2023-05-16T00:19:00.961Z,8.85
2023-05-16T00:21:28.578Z,11.38
2023-05-16T00:23:55.859Z,11.32
2023-05-16T00:26:22.959Z,11.10
2023-05-16T00:28:49.927Z,8.85
2023-05-16T00:31:17.266Z,8.75
2023-05-16T00:33:44.576Z,9.38
2023-05-16T00:36:12.237Z,8.82
2023-05-16T00:38:39.338Z,12.23
2023-05-16T00:41:06.605Z,10.85
2023-05-16T00:43:33.587Z,11.45
2023-05-16T00:46:01.676Z,9.23
2023-05-16T00:48:28.882Z,13.23
2023-05-16T00:50:56.565Z,11.07
2023-05-16T00:53:24.809Z,13.30
2023-05-16T00:55:52.372Z,9.45
2023-05-16T00:58:19.747Z,12.02
2023-05-16T01:00:48.759Z,10.73
2023-05-16T01:03:16.225Z,10.35
2023-05-16T01:05:44.046Z,13.55
2023-05-16T01:08:12.749Z,11.68
2023-05-16T01:10:50.125Z,12.80
2023-05-16T01:13:33.750Z,13.18
2023-05-16T01:16:11.937Z,11.40
2023-05-16T01:19:01.679Z,12.15
2023-05-16T01:21:48.459Z,12.05
2023-05-16T01:24:43.868Z,11.75
2023-05-16T01:27:13.002Z,11.60
2023-05-16T01:29:39.970Z,10.25
2023-05-16T01:32:07.728Z,10.32
2023-05-16T01:34:34.934Z,11.30
2023-05-16T01:37:30.614Z,11.50
2023-05-16T01:40:08.079Z,12.77
2023-05-16T01:42:39.676Z,13.95
2023-05-16T01:45:13.299Z,11.30
2023-05-16T01:47:44.196Z,12.75
2023-05-16T01:50:15.799Z,13.27
2023-05-16T01:52:50.543Z,14.05
2023-05-16T01:55:43.875Z,10.88
2023-05-16T01:58:14.200Z,14.00
2023-05-16T02:00:42.628Z,11.93
2023-05-16T02:03:09.937Z,11.65
2023-05-16T02:05:38.420Z,12.88
2023-05-16T02:08:07.127Z,12.95
2023-05-16T02:10:34.420Z,14.93
2023-05-16T02:13:01.600Z,11.75
2023-05-16T02:15:29.008Z,17.88
2023-05-16T02:17:56.750Z,12.10
2023-05-16T02:20:23.855Z,11.98
2023-05-16T02:22:51.123Z,12.15
2023-05-16T02:25:18.073Z,14.00
2023-05-16T02:27:45.337Z,14.35
2023-05-16T02:30:13.463Z,12.43
2023-05-16T02:32:41.278Z,14.38
2023-05-16T02:35:08.591Z,14.23
2023-05-16T02:37:36.204Z,13.55
2023-05-16T02:40:05.927Z,13.02
2023-05-16T02:42:33.655Z,17.40
2023-05-16T02:45:00.880Z,14.30
2023-05-16T02:47:28.298Z,15.20
2023-05-16T02:49:55.254Z,15.15
2023-05-16T02:52:22.624Z,15.25
2023-05-16T02:55:09.248Z,12.65
2023-05-16T02:57:37.523Z,14.30
2023-05-16T03:00:06.136Z,17.77
2023-05-16T03:02:33.950Z,15.10
2023-05-16T03:05:01.628Z,14.57
2023-05-16T03:07:28.851Z,15.10
2023-05-16T03:09:56.798Z,14.30
2023-05-16T03:12:23.948Z,11.98
2023-05-16T03:14:51.808Z,13.93
2023-05-16T03:17:19.059Z,15.68
2023-05-16T03:19:46.413Z,15.70
2023-05-16T03:22:13.579Z,14.35
2023-05-16T03:24:43.379Z,13.20
2023-05-16T03:27:12.146Z,12.77
2023-05-16T03:29:38.993Z,14.48
2023-05-16T03:32:06.901Z,14.40
2023-05-16T03:34:33.854Z,14.93
2023-05-16T03:37:01.322Z,12.88
2023-05-16T03:39:28.821Z,13.50
2023-05-16T03:41:57.266Z,13.75
2023-05-16T03:44:24.758Z,13.18
2023-05-16T03:46:53.220Z,15.10
2023-05-16T03:49:24.985Z,16.02
2023-05-16T03:51:52.231Z,11.73
2023-05-16T03:54:19.348Z,13.90
2023-05-16T03:56:46.932Z,13.45
2023-05-16T03:59:13.864Z,13.50
2023-05-16T04:01:41.318Z,14.98
2023-05-16T04:04:08.309Z,14.48
2023-05-16T04:06:35.723Z,14.27
2023-05-16T04:09:02.848Z,13.23
2023-05-16T04:11:30.070Z,14.73
2023-05-16T04:13:57.590Z,14.18
2023-05-16T04:16:25.213Z,14.25
2023-05-16T04:18:52.273Z,16.17
2023-05-16T04:21:19.420Z,16.15
2023-05-16T04:23:46.611Z,14.52
2023-05-16T04:26:14.712Z,13.18
2023-05-16T04:28:41.734Z,14.13
2023-05-16T04:31:09.061Z,14.38
2023-05-16T04:33:37.250Z,14.23
2023-05-16T04:36:05.938Z,37.08
2023-05-16T04:38:33.019Z,14.70
2023-05-16T04:41:00.800Z,13.07
2023-05-16T04:43:27.889Z,17.05
2023-05-16T04:45:55.060Z,11.55
2023-05-16T04:48:22.224Z,21.25
2023-05-16T04:50:49.365Z,11.90
2023-05-16T04:53:16.578Z,10.70
2023-05-16T04:55:44.097Z,10.02
2023-05-16T04:58:11.289Z,10.60
2023-05-16T05:00:39.669Z,8.82
2023-05-16T05:03:07.081Z,12.60
2023-05-16T05:05:34.813Z,8.02
2023-05-16T05:08:02.221Z,8.60
2023-05-16T05:10:31.261Z,7.80
2023-05-16T05:12:58.746Z,14.43
2023-05-16T05:15:26.090Z,7.25
2023-05-16T05:17:53.664Z,9.30
2023-05-16T05:20:22.019Z,10.15
2023-05-16T05:22:48.880Z,8.70
2023-05-16T05:25:16.151Z,8.63
2023-05-16T05:27:43.251Z,13.25
2023-05-16T05:30:11.424Z,9.13
2023-05-16T05:32:39.156Z,11.93
2023-05-16T05:35:07.008Z,10.40
2023-05-16T05:37:33.933Z,12.55
2023-05-16T05:40:01.512Z,11.48
2023-05-16T05:42:28.545Z,10.77
2023-05-16T05:44:55.928Z,10.40
2023-05-16T05:47:22.933Z,17.13
2023-05-16T05:49:50.932Z,12.73
2023-05-16T05:52:18.073Z,14.32
2023-05-16T05:54:46.025Z,9.05
2023-05-16T05:57:13.126Z,10.98
2023-05-16T05:59:40.852Z,10.50
2023-05-16T06:02:08.349Z,8.25
2023-05-16T06:04:35.922Z,13.50
2023-05-16T06:07:03.333Z,9.90
2023-05-16T06:09:31.193Z,9.60
2023-05-16T06:11:58.047Z,10.70
2023-05-16T06:14:25.195Z,10.77
2023-05-16T06:16:52.024Z,11.02
2023-05-16T06:19:19.505Z,11.18
2023-05-16T06:21:46.725Z,10.57
2023-05-16T06:24:14.339Z,10.93
2023-05-16T06:26:41.355Z,10.18
2023-05-16T06:29:08.810Z,13.20
2023-05-16T06:31:36.151Z,10.27
2023-05-16T06:34:04.253Z,10.68
2023-05-16T06:36:31.458Z,12.43
2023-05-16T06:38:58.847Z,13.23
2023-05-16T06:41:26.543Z,15.25
2023-05-16T06:43:53.857Z,14.27
2023-05-16T06:46:21.193Z,10.30
2023-05-16T06:48:48.646Z,10.52
2023-05-16T06:51:16.327Z,11.70
2023-05-16T06:53:43.517Z,9.23
2023-05-16T06:56:11.101Z,12.02
2023-05-16T06:58:38.478Z,12.30
2023-05-16T07:01:05.816Z,14.60
2023-05-16T07:03:33.249Z,10.57
2023-05-16T07:06:00.578Z,10.25
2023-05-16T07:08:27.752Z,11.73
2023-05-16T07:10:54.890Z,10.95
2023-05-16T07:13:22.087Z,10.82
2023-05-16T07:15:49.222Z,10.13
2023-05-16T07:18:16.484Z,12.48
2023-05-16T07:20:45.616Z,16.33
2023-05-16T07:23:13.443Z,10.82
2023-05-16T07:25:40.594Z,8.90
2023-05-16T07:28:08.143Z,9.73
2023-05-16T07:30:35.297Z,7.43
2023-05-16T07:33:02.501Z,8.82
2023-05-16T07:35:29.765Z,7.22
2023-05-16T07:37:57.181Z,7.93
2023-05-16T07:40:29.347Z,9.40
2023-05-16T07:42:56.936Z,7.63
2023-05-16T07:45:24.199Z,10.02
2023-05-16T07:47:52.078Z,10.30
2023-05-16T07:50:19.165Z,8.77
2023-05-16T07:52:46.945Z,8.25
2023-05-16T07:55:13.803Z,7.50
2023-05-16T07:57:41.266Z,8.60
2023-05-16T08:00:11.886Z,5.75
2023-05-16T08:02:39.688Z,6.53
2023-05-16T08:05:07.660Z,6.32
2023-05-16T08:07:35.256Z,6.93
2023-05-16T08:10:02.250Z,5.45
2023-05-16T08:12:31.131Z,7.72
2023-05-16T08:14:58.270Z,4.15
2023-05-16T08:17:25.710Z,4.95
2023-05-16T08:19:52.650Z,4.05
2023-05-16T08:22:20.192Z,4.30
2023-05-16T08:24:47.148Z,5.97
2023-05-16T08:27:14.447Z,3.45
2023-05-16T08:29:41.840Z,7.03
2023-05-16T08:32:11.188Z,4.82
2023-05-16T08:34:38.254Z,5.22
2023-05-16T08:37:06.531Z,3.13
2023-05-16T08:39:33.789Z,3.65
2023-05-16T08:42:01.612Z,7.97
2023-05-16T08:44:29.063Z,6.38
2023-05-16T08:46:57.783Z,7.28
2023-05-16T08:49:28.346Z,4.15
2023-05-16T08:51:58.309Z,4.38
2023-05-16T08:54:27.992Z,5.40
2023-05-16T08:56:58.340Z,3.28
2023-05-16T08:59:25.798Z,5.18
2023-05-16T09:01:53.189Z,5.45
2023-05-16T09:04:21.007Z,4.20
2023-05-16T09:06:48.500Z,5.18
2023-05-16T09:09:15.666Z,4.70
2023-05-16T09:11:43.824Z,5.40
2023-05-16T09:14:10.945Z,3.95
2023-05-16T09:16:40.870Z,3.70
2023-05-16T09:19:08.283Z,5.68
2023-05-16T09:21:36.077Z,5.22
2023-05-16T09:24:08.344Z,6.65
2023-05-16T09:26:37.964Z,4.97
2023-05-16T09:29:14.894Z,4.32
2023-05-16T09:31:42.920Z,4.75
2023-05-16T09:34:12.772Z,6.07
2023-05-16T09:36:42.221Z,8.18
2023-05-16T09:39:15.669Z,5.95
2023-05-16T09:41:43.158Z,4.78
2023-05-16T09:44:10.253Z,4.05
2023-05-16T09:46:38.572Z,4.28
2023-05-16T09:49:06.380Z,3.92
2023-05-16T09:51:34.806Z,6.60
2023-05-16T09:54:02.192Z,2.67
2023-05-16T09:56:30.572Z,3.15
2023-05-16T09:58:57.953Z,5.75
2023-05-16T10:01:26.084Z,4.57
2023-05-16T10:03:53.486Z,8.40
2023-05-16T10:06:21.833Z,8.75
2023-05-16T10:08:50.921Z,10.68
2023-05-16T10:11:19.140Z,8.45
2023-05-16T10:13:53.087Z,3.03
2023-05-16T10:16:23.833Z,1.70
2023-05-16T10:18:51.701Z,2.38
2023-05-16T10:21:22.188Z,2.45
2023-05-16T10:23:51.909Z,2.63
2023-05-16T10:26:21.937Z,2.35
2023-05-16T10:28:49.614Z,3.25
2023-05-16T10:31:18.609Z,3.25
2023-05-16T10:33:46.498Z,3.03
2023-05-16T10:36:15.690Z,3.47
2023-05-16T10:38:43.407Z,2.15
2023-05-16T10:41:12.157Z,3.00
2023-05-16T10:43:39.308Z,7.00
2023-05-16T10:46:10.970Z,5.72
2023-05-16T10:48:41.298Z,3.83
2023-05-16T10:51:38.890Z,4.25
2023-05-16T10:54:09.753Z,4.20
2023-05-16T10:56:37.435Z,4.45
2023-05-16T10:59:07.279Z,2.42
2023-05-16T11:01:35.708Z,6.82
2023-05-16T11:04:05.902Z,3.22
2023-05-16T11:06:42.820Z,3.20
2023-05-16T11:09:16.466Z,1.58
2023-05-16T11:11:54.374Z,2.25
2023-05-16T11:14:38.792Z,3.38
2023-05-16T11:17:21.445Z,3.88
2023-05-16T11:19:59.311Z,4.53
2023-05-16T11:22:29.792Z,2.92
2023-05-16T11:24:59.686Z,2.47
2023-05-16T11:27:28.588Z,5.20
2023-05-16T11:30:02.835Z,5.50
2023-05-16T11:32:35.470Z,3.78
2023-05-16T11:35:04.128Z,3.40
2023-05-16T11:37:32.055Z,3.08
2023-05-16T11:40:07.283Z,3.33
2023-05-16T11:42:37.601Z,2.58
2023-05-16T11:45:25.604Z,2.83
2023-05-16T11:47:53.486Z,3.80
2023-05-16T11:50:23.722Z,3.50
2023-05-16T11:52:54.198Z,2.43
2023-05-16T11:55:40.441Z,5.30
2023-05-16T11:58:09.710Z,2.55
2023-05-16T12:00:36.756Z,3.08
2023-05-16T12:03:06.141Z,2.85
2023-05-16T12:05:34.997Z,2.90
2023-05-16T12:08:04.904Z,6.07
2023-05-16T12:10:34.821Z,3.42
2023-05-16T12:13:04.038Z,2.58
2023-05-16T12:15:31.568Z,4.70
2023-05-16T12:17:59.331Z,5.10
2023-05-16T12:20:26.942Z,2.45
2023-05-16T12:22:58.575Z,4.80
2023-05-16T12:25:32.787Z,3.53
2023-05-16T12:28:04.829Z,2.47
2023-05-16T12:33:09.770Z,3.33
2023-05-16T12:35:40.302Z,2.75
2023-05-16T12:38:10.244Z,4.30
2023-05-16T12:40:39.464Z,2.10
2023-05-16T12:43:19.748Z,3.70
2023-05-16T12:45:55.207Z,3.05
2023-05-16T12:48:24.294Z,6.97
2023-05-16T12:50:51.485Z,2.58
2023-05-16T12:53:19.409Z,4.03
2023-05-16T12:55:46.513Z,3.10
2023-05-16T12:58:14.297Z,4.43
2023-05-16T13:00:41.295Z,4.30
2023-05-16T13:03:09.213Z,2.90
2023-05-16T13:05:36.740Z,2.50
2023-05-16T13:08:04.699Z,2.38
2023-05-16T13:10:31.737Z,2.92
2023-05-16T13:13:00.172Z,2.85
2023-05-16T13:15:28.099Z,7.25
2023-05-16T13:17:55.931Z,6.10
2023-05-16T13:20:23.709Z,2.58
2023-05-16T13:22:51.169Z,2.72
2023-05-16T13:25:18.604Z,3.75
2023-05-16T13:27:46.481Z,8.13
2023-05-16T13:30:14.320Z,4.50
2023-05-16T13:32:42.529Z,4.32
2023-05-16T13:35:10.466Z,3.05
2023-05-16T13:37:38.113Z,4.60
2023-05-16T13:40:09.997Z,5.03
2023-05-16T13:42:38.830Z,3.55
2023-05-16T13:45:07.077Z,4.50
2023-05-16T13:47:34.582Z,3.00
2023-05-16T13:50:09.238Z,6.28
2023-05-16T13:52:38.290Z,2.88
2023-05-16T13:55:08.210Z,7.47
2023-05-16T13:57:36.775Z,3.10
2023-05-16T14:00:35.153Z,3.20
2023-05-16T14:03:00.311Z,5.38
2023-05-16T14:05:27.979Z,4.15
2023-05-16T14:07:56.047Z,5.78
2023-05-16T14:10:23.275Z,2.78
2023-05-16T14:12:51.974Z,4.28
2023-05-16T14:15:18.971Z,3.83
2023-05-16T14:17:47.361Z,4.30
2023-05-16T14:20:15.533Z,2.17
2023-05-16T14:22:43.556Z,2.05
2023-05-16T14:25:10.870Z,1.77
2023-05-16T14:27:38.744Z,7.15
2023-05-16T14:30:06.614Z,3.63
2023-05-16T14:32:34.255Z,2.17
2023-05-16T14:35:01.404Z,7.55
2023-05-16T14:37:28.821Z,2.55
2023-05-16T14:39:57.334Z,5.95
2023-05-16T14:42:25.512Z,1.67
2023-05-16T14:44:52.833Z,3.60
2023-05-16T14:47:20.321Z,3.28
2023-05-16T14:49:47.605Z,2.78
2023-05-16T14:52:15.366Z,4.97
2023-05-16T14:54:42.511Z,1.40
2023-05-16T14:57:10.879Z,2.03
2023-05-16T14:59:38.050Z,2.78
2023-05-16T15:02:06.639Z,2.80
2023-05-16T15:04:34.337Z,2.58
2023-05-16T15:07:02.317Z,3.30
2023-05-16T15:09:29.231Z,4.57
2023-05-16T15:11:57.104Z,2.95
2023-05-16T15:14:24.372Z,3.65
2023-05-16T15:16:52.359Z,1.88
2023-05-16T15:19:19.802Z,2.50
2023-05-16T15:21:47.585Z,3.65
2023-05-16T15:24:14.594Z,1.75
2023-05-16T15:26:43.136Z,3.90
2023-05-16T15:29:11.195Z,4.03
2023-05-16T15:31:39.290Z,8.93
2023-05-16T15:34:07.668Z,5.22
2023-05-16T15:36:35.398Z,3.78
2023-05-16T15:39:02.409Z,3.08
2023-05-16T15:41:56.387Z,3.53
2023-05-16T15:44:19.106Z,4.32
2023-05-16T15:46:46.512Z,2.00
2023-05-16T15:49:13.632Z,4.53
2023-05-16T15:51:41.063Z,3.03
2023-05-16T15:54:08.484Z,2.58
2023-05-16T15:56:36.206Z,3.10
2023-05-16T15:59:03.296Z,3.53
2023-05-16T16:01:30.741Z,5.38
2023-05-16T16:03:58.535Z,4.03
2023-05-16T16:06:27.255Z,7.88
2023-05-16T16:08:55.268Z,8.25
2023-05-16T16:11:23.493Z,5.35
2023-05-16T16:13:51.448Z,4.90
2023-05-16T16:16:19.329Z,2.97
2023-05-16T16:18:47.202Z,3.88
2023-05-16T16:21:14.709Z,3.42
2023-05-16T16:23:43.284Z,10.50
2023-05-16T16:26:10.849Z,6.70
2023-05-16T16:28:38.285Z,6.95
2023-05-16T16:31:06.141Z,6.30
2023-05-16T16:33:34.554Z,6.50
2023-05-16T16:36:02.084Z,6.75
2023-05-16T16:38:29.456Z,10.05
2023-05-16T16:40:56.780Z,11.55
2023-05-16T16:43:24.354Z,4.50
2023-05-16T16:45:51.576Z,3.80
2023-05-16T16:48:18.893Z,2.92
2023-05-16T16:50:46.348Z,3.17
2023-05-16T16:53:13.406Z,3.55
2023-05-16T16:55:41.201Z,6.10
2023-05-16T16:58:08.746Z,7.00
2023-05-16T17:00:36.116Z,6.22
2023-05-16T17:03:05.007Z,3.80
2023-05-16T17:05:32.571Z,4.88
2023-05-16T17:07:59.848Z,6.10
2023-05-16T17:10:27.272Z,6.15
2023-05-16T17:12:54.781Z,3.60
2023-05-16T17:15:22.337Z,3.45
2023-05-16T17:17:49.610Z,4.07
2023-05-16T17:20:17.152Z,7.25
2023-05-16T17:22:44.960Z,5.43
2023-05-16T17:25:13.126Z,5.18
2023-05-16T17:27:40.956Z,4.47
2023-05-16T17:30:10.631Z,3.58
2023-05-16T17:32:37.762Z,3.92
2023-05-16T17:35:06.689Z,5.13
2023-05-16T17:37:33.950Z,7.20
2023-05-16T17:40:01.666Z,3.00
2023-05-16T17:42:28.610Z,6.93
2023-05-16T17:44:56.143Z,13.43
2023-05-16T17:47:23.248Z,4.20
2023-05-16T17:49:51.363Z,6.35
2023-05-16T17:52:20.139Z,4.85
2023-05-16T17:54:48.086Z,4.60
2023-05-16T17:57:15.330Z,5.90
2023-05-16T17:59:43.148Z,4.68
2023-05-16T18:02:10.276Z,11.55
2023-05-16T18:04:38.184Z,3.92
2023-05-16T18:07:05.447Z,5.90
2023-05-16T18:09:32.701Z,6.13
2023-05-16T18:12:01.369Z,11.23
2023-05-16T18:14:29.106Z,5.72
2023-05-16T18:16:56.399Z,7.70
2023-05-16T18:19:24.265Z,6.70
2023-05-16T18:21:51.678Z,4.97
2023-05-16T18:24:19.242Z,9.85
2023-05-16T18:26:48.470Z,6.25
2023-05-16T18:29:16.249Z,5.40
2023-05-16T18:31:43.363Z,8.50
2023-05-16T18:34:11.441Z,6.63
2023-05-16T18:36:39.285Z,8.07
2023-05-16T18:39:08.898Z,6.97
2023-05-16T18:41:37.746Z,6.72
2023-05-16T18:44:05.405Z,4.53
2023-05-16T18:46:32.967Z,6.20
2023-05-16T18:49:00.561Z,7.88
2023-05-16T18:51:27.550Z,7.63
2023-05-16T18:53:54.901Z,5.85
2023-05-16T18:56:22.736Z,8.80
2023-05-16T18:58:50.078Z,5.63
2023-05-16T19:01:17.186Z,6.50
2023-05-16T19:03:44.741Z,7.93
2023-05-16T19:06:12.071Z,4.43
2023-05-16T19:08:47.530Z,4.78
2023-05-16T19:11:17.378Z,5.72
2023-05-16T19:13:47.839Z,5.43
2023-05-16T19:16:15.852Z,11.65
2023-05-16T19:18:43.579Z,5.95
2023-05-16T19:21:13.613Z,6.50
2023-05-16T19:23:41.153Z,5.68
2023-05-16T19:26:08.100Z,5.30
2023-05-16T19:28:35.459Z,7.00
2023-05-16T19:31:02.663Z,6.05
2023-05-16T19:33:29.965Z,5.95
2023-05-16T19:35:58.585Z,10.43
2023-05-16T19:38:26.498Z,7.07
2023-05-16T19:40:54.946Z,5.95
2023-05-16T19:43:22.309Z,11.07
2023-05-16T19:45:50.070Z,10.27
2023-05-16T19:48:17.525Z,9.43
2023-05-16T19:50:44.918Z,13.45
2023-05-16T19:53:12.440Z,8.48
2023-05-16T19:55:39.401Z,7.38
2023-05-16T19:58:07.030Z,6.15
2023-05-16T20:00:34.259Z,9.52
2023-05-16T20:03:02.419Z,8.77
2023-05-16T20:05:31.241Z,13.55
2023-05-16T20:07:58.804Z,7.85
2023-05-16T20:10:25.828Z,7.47
2023-05-16T20:12:53.947Z,10.05
2023-05-16T20:15:21.029Z,9.80
2023-05-16T20:17:48.489Z,11.15
2023-05-16T20:20:15.660Z,12.05
2023-05-16T20:22:43.136Z,9.65
2023-05-16T20:25:10.713Z,7.40
2023-05-16T20:27:38.932Z,8.55
2023-05-16T20:30:07.409Z,13.90
2023-05-16T20:32:35.041Z,7.88
2023-05-16T20:35:04.917Z,10.18
2023-05-16T20:37:32.345Z,8.20
2023-05-16T20:39:59.304Z,7.65
2023-05-16T20:42:26.929Z,8.45
2023-05-16T20:44:54.129Z,10.68
2023-05-16T20:47:21.579Z,6.85
2023-05-16T20:49:48.521Z,9.45
2023-05-16T20:52:15.978Z,10.30
2023-05-16T20:54:42.897Z,8.75
2023-05-16T20:57:10.497Z,10.90
2023-05-16T20:59:37.873Z,8.98
2023-05-16T21:02:06.216Z,13.55
2023-05-16T21:04:33.408Z,13.63
2023-05-16T21:07:00.913Z,12.45
2023-05-16T21:09:28.089Z,11.02
2023-05-16T21:11:55.507Z,9.00
2023-05-16T21:14:22.796Z,10.07
2023-05-16T21:16:50.541Z,7.95
2023-05-16T21:19:17.663Z,6.93
2023-05-16T21:21:44.958Z,8.10
2023-05-16T21:24:11.908Z,15.20
2023-05-16T21:26:39.550Z,9.80
2023-05-16T21:29:06.787Z,9.07
2023-05-16T21:31:34.228Z,8.80
2023-05-16T21:34:01.251Z,8.68
2023-05-16T21:36:28.464Z,10.50
2023-05-16T21:38:55.867Z,11.98
2023-05-16T21:41:23.265Z,9.30
2023-05-16T21:43:51.120Z,10.48
2023-05-16T21:46:18.372Z,9.25
2023-05-16T21:48:45.925Z,9.65
2023-05-16T21:51:13.194Z,11.38
2023-05-16T21:53:40.203Z,11.57
2023-05-16T21:56:07.721Z,10.57
2023-05-16T21:58:34.609Z,10.13
2023-05-16T22:01:02.167Z,12.13
2023-05-16T22:03:29.126Z,11.85
2023-05-16T22:05:58.057Z,11.60
2023-05-16T22:08:25.630Z,10.85
2023-05-16T22:10:53.157Z,9.88
2023-05-16T22:13:21.040Z,11.30
2023-05-16T22:16:03.325Z,8.63
2023-05-16T22:18:31.550Z,11.65
2023-05-16T22:20:58.993Z,10.25
2023-05-16T22:23:26.674Z,12.45
2023-05-16T22:25:53.764Z,11.48
2023-05-16T22:28:20.922Z,10.60
2023-05-16T22:30:48.817Z,9.45
2023-05-16T22:33:15.844Z,10.60
2023-05-16T22:35:43.292Z,10.50
2023-05-16T22:38:10.580Z,15.80
2023-05-16T22:40:38.069Z,10.55
2023-05-16T22:43:05.331Z,12.00
2023-05-16T22:45:32.684Z,10.05
2023-05-16T22:47:59.912Z,11.85
2023-05-16T22:50:27.551Z,11.60
2023-05-16T22:52:54.478Z,12.75
2023-05-16T22:55:21.722Z,10.40
2023-05-16T22:57:48.836Z,12.25
2023-05-16T23:00:19.037Z,13.60
2023-05-16T23:02:46.075Z,11.10
2023-05-16T23:05:13.372Z,10.75
2023-05-16T23:07:40.291Z,13.60
2023-05-16T23:10:08.330Z,10.02
2023-05-16T23:12:35.601Z,11.75
2023-05-16T23:15:03.300Z,14.23
2023-05-16T23:17:30.448Z,13.23
2023-05-16T23:19:57.744Z,13.63
2023-05-16T23:22:24.825Z,12.90
2023-05-16T23:24:52.344Z,19.35
2023-05-16T23:27:19.222Z,12.00
2023-05-16T23:29:46.548Z,14.15
2023-05-16T23:32:13.858Z,17.48
2023-05-16T23:34:41.228Z,12.55
2023-05-16T23:37:08.298Z,14.23
2023-05-16T23:39:35.896Z,12.20
2023-05-16T23:42:02.977Z,15.52
2023-05-16T23:44:30.381Z,15.30
2023-05-16T23:46:57.218Z,13.40
2023-05-16T23:49:24.650Z,11.30
2023-05-16T23:51:58.024Z,13.75
2023-05-16T23:54:26.607Z,11.82
2023-05-16T23:56:53.805Z,12.63
2023-05-16T23:59:21.179Z,14.50
